createdAt,value
2019-04-05T00:00:35.714Z,100015.75
2019-04-05T00:05:38.500Z,100018.26
2019-04-05T00:10:41.195Z,99998.30
2019-04-05T00:15:45.113Z,100004.77
2019-04-05T00:20:47.798Z,99992.94
2019-04-05T00:25:50.517Z,99983.08
2019-04-05T00:30:53.302Z,99987.00
2019-04-05T00:35:55.987Z,99989.81
2019-04-05T00:40:58.683Z,99996.28
2019-04-05T00:46:01.385Z,100006.16
2019-04-05T00:51:04.185Z,100010.21
2019-04-05T00:56:06.892Z,100008.39
2019-04-05T01:01:09.569Z,100008.91
2019-04-05T01:06:13.555Z,100015.30
2019-04-05T01:11:16.508Z,100022.14
2019-04-05T01:16:19.281Z,100029.16
2019-04-05T01:21:24.372Z,100016.23
2019-04-05T01:26:27.963Z,100021.97
2019-04-05T01:31:30.637Z,100019.22
2019-04-05T01:36:33.319Z,100028.61
2019-04-05T01:41:36.316Z,100029.98
2019-04-05T01:46:39.594Z,100043.27
2019-04-05T01:51:42.857Z,100046.09
2019-04-05T01:56:45.542Z,100054.89
2019-04-05T02:01:48.626Z,100064.89
2019-04-05T02:06:51.411Z,100079.41
2019-04-05T02:11:54.305Z,100080.58
2019-04-05T02:16:56.988Z,100096.05
2019-04-05T02:21:59.700Z,100098.48
2019-04-05T02:27:02.380Z,100089.78
2019-04-05T02:32:05.070Z,100092.61
2019-04-05T02:37:07.751Z,100088.94
2019-04-05T02:42:11.765Z,100080.95
2019-04-05T02:47:14.760Z,100080.36
2019-04-05T02:52:20.457Z,100082.53
2019-04-05T02:57:24.651Z,100085.45
2019-04-05T03:02:28.754Z,100080.91
2019-04-05T03:07:31.429Z,100084.51
2019-04-05T03:12:35.241Z,100080.94
2019-04-05T03:17:38.332Z,100067.37
2019-04-05T03:22:41.025Z,100074.80
2019-04-05T03:27:44.315Z,100076.58
2019-04-05T03:32:47.741Z,100080.59
2019-04-05T03:37:51.015Z,100080.87
2019-04-05T03:42:53.807Z,100086.33
2019-04-05T03:47:58.233Z,100099.73
2019-04-05T03:53:00.932Z,100085.72
2019-04-05T03:58:04.011Z,100085.05
2019-04-05T04:03:06.798Z,100097.38
2019-04-05T04:08:10.084Z,100094.49
2019-04-05T04:13:12.789Z,100090.65
2019-04-05T04:18:15.958Z,100082.27
2019-04-05T04:23:22.447Z,100087.55
2019-04-05T04:28:25.647Z,100089.28
2019-04-05T04:33:28.899Z,100094.02
2019-04-05T04:38:32.011Z,100105.92
2019-04-05T04:43:35.381Z,100108.78
2019-04-05T04:48:39.258Z,100121.48
2019-04-05T04:53:42.475Z,100119.06
2019-04-05T04:58:46.386Z,100112.21
2019-04-05T05:03:49.586Z,100119.54
2019-04-05T05:08:52.691Z,100123.38
2019-04-05T05:13:55.582Z,100125.67
2019-04-05T05:18:59.021Z,100124.78
2019-04-05T05:24:01.718Z,100128.92
2019-04-05T05:29:04.828Z,100130.19
2019-04-05T05:34:07.925Z,100125.67
2019-04-05T05:39:10.716Z,100133.15
2019-04-05T05:44:13.434Z,100133.38
2019-04-05T05:49:16.155Z,100141.19
2019-04-05T05:54:18.849Z,100149.19
2019-04-05T05:59:21.596Z,100156.90
2019-04-05T06:04:24.299Z,100161.77
2019-04-05T06:09:26.985Z,100162.31
2019-04-05T06:14:29.670Z,100148.96
2019-04-05T06:19:32.386Z,100165.28
2019-04-05T06:24:35.094Z,100163.37
2019-04-05T06:29:37.811Z,100170.09
2019-04-05T06:34:40.512Z,100176.59
2019-04-05T06:39:43.277Z,100173.97
2019-04-05T06:44:45.955Z,100171.27
2019-04-05T06:49:48.664Z,100166.44
2019-04-05T06:54:51.369Z,100157.09
2019-04-05T06:59:54.082Z,100147.20
2019-04-05T07:04:56.897Z,100164.10
2019-04-05T07:09:59.590Z,100177.13
2019-04-05T07:15:02.344Z,100168.87
2019-04-05T07:20:05.207Z,100170.66
2019-04-05T07:25:07.892Z,100183.60
2019-04-05T07:30:11.204Z,100183.83
2019-04-05T07:36:12.333Z,100184.54
2019-04-05T07:41:15.043Z,100190.36
2019-04-05T07:46:17.733Z,100197.41
2019-04-05T07:51:22.663Z,100199.66
2019-04-05T07:56:25.341Z,100204.41
2019-04-05T08:01:28.040Z,100199.51
2019-04-05T08:06:33.350Z,100201.70
2019-04-05T08:11:37.765Z,100211.94
2019-04-05T08:16:40.622Z,100197.11
2019-04-05T08:21:43.318Z,100196.87
2019-04-05T08:26:46.027Z,100207.87
2019-04-05T08:31:48.738Z,100211.66
2019-04-05T08:36:51.438Z,100207.95
2019-04-05T08:41:54.135Z,100196.69
2019-04-05T08:46:56.831Z,100197.20
2019-04-05T08:51:59.529Z,100194.75
2019-04-05T08:57:02.225Z,100193.64
2019-04-05T09:02:04.927Z,100193.16
2019-04-05T09:07:07.629Z,100193.86
2019-04-05T09:12:10.362Z,100197.57
2019-04-05T09:17:13.064Z,100194.60
2019-04-05T09:22:15.780Z,100205.53
2019-04-05T09:27:18.485Z,100199.61
2019-04-05T09:32:21.190Z,100198.75
2019-04-05T09:37:23.884Z,100201.03
2019-04-05T09:42:26.582Z,100202.61
2019-04-05T09:47:29.280Z,100203.14
2019-04-05T09:52:31.973Z,100204.38
2019-04-05T09:57:34.672Z,100196.15
2019-04-05T10:02:37.375Z,100191.61
2019-04-05T10:07:53.885Z,100198.66
2019-04-05T10:12:44.758Z,100195.44
2019-04-05T10:17:47.440Z,100198.31
2019-04-05T10:22:50.137Z,100199.41
2019-04-05T10:27:52.842Z,100203.05
2019-04-05T10:32:55.521Z,100214.46
2019-04-05T10:37:58.577Z,100204.39
2019-04-05T10:43:01.418Z,100204.31
2019-04-05T10:48:04.124Z,100208.84
2019-04-05T10:53:06.965Z,100207.69
2019-04-05T10:58:09.837Z,100214.99
2019-04-05T11:03:12.538Z,100214.62
2019-04-05T11:08:15.238Z,100208.59
2019-04-05T11:13:17.934Z,100203.30
2019-04-05T11:18:20.630Z,100206.00
2019-04-05T11:23:23.318Z,100205.55
2019-04-05T11:28:26.010Z,100214.05
2019-04-05T11:33:28.843Z,100225.39
2019-04-05T11:38:31.534Z,100227.66
2019-04-05T11:43:35.136Z,100230.28
2019-04-05T11:48:41.095Z,100227.00
2019-04-05T11:53:42.762Z,100233.03
2019-04-05T11:58:48.792Z,100234.94
2019-04-05T12:03:51.750Z,100233.07
2019-04-05T12:08:54.441Z,100222.52
2019-04-05T12:13:58.735Z,100233.19
2019-04-05T12:19:04.490Z,100231.02
2019-04-05T12:24:06.038Z,100222.89
2019-04-05T12:29:08.814Z,100234.61
2019-04-05T12:34:11.511Z,100236.64
2019-04-05T12:39:14.207Z,100235.41
2019-04-05T12:44:16.894Z,100227.93
2019-04-05T12:49:19.698Z,100226.70
2019-04-05T12:54:22.407Z,100223.69
2019-04-05T12:59:25.928Z,100208.41
2019-04-05T13:04:28.803Z,100216.16
2019-04-05T13:09:31.499Z,100220.73
2019-04-05T13:14:34.309Z,100213.67
2019-04-05T13:19:37.007Z,100213.69
2019-04-05T13:24:40.390Z,100220.58
2019-04-05T13:29:43.310Z,100219.72
2019-04-05T13:34:46.007Z,100215.30
2019-04-05T13:39:48.697Z,100215.45
2019-04-05T13:44:51.391Z,100224.13
2019-04-05T13:49:54.093Z,100221.77
2019-04-05T13:54:56.789Z,100223.67
2019-04-05T13:59:59.502Z,100220.41
2019-04-05T14:05:02.204Z,100217.29
2019-04-05T14:10:05.747Z,100211.26
2019-04-05T14:15:11.240Z,100210.78
2019-04-05T14:20:14.140Z,100204.98
2019-04-05T14:25:16.939Z,100198.75
2019-04-05T14:30:19.643Z,100198.72
2019-04-05T14:35:24.517Z,100201.22
2019-04-05T14:40:28.874Z,100196.30
2019-04-05T14:45:31.515Z,100198.14
2019-04-05T14:50:34.211Z,100193.48
2019-04-05T14:55:36.905Z,100199.03
2019-04-05T15:00:39.619Z,100189.03
2019-04-05T15:05:42.410Z,100194.91
2019-04-05T15:10:45.106Z,100191.69
2019-04-05T15:15:47.798Z,100198.47
2019-04-05T15:20:50.486Z,100199.22
2019-04-05T15:25:53.220Z,100195.06
2019-04-05T15:30:56.593Z,100198.77
2019-04-05T15:36:02.952Z,100198.14
2019-04-05T15:41:04.029Z,100191.88
2019-04-05T15:46:06.747Z,100198.33
2019-04-05T15:51:09.762Z,100193.45
2019-04-05T15:56:12.562Z,100199.48
2019-04-05T16:01:15.830Z,100191.66
2019-04-05T16:06:18.520Z,100193.08
2019-04-05T16:11:21.233Z,100195.74
2019-04-05T16:16:23.935Z,100193.08
2019-04-05T16:21:26.640Z,100199.74
2019-04-05T16:26:29.387Z,100200.67
2019-04-05T16:31:32.087Z,100205.44
2019-04-05T16:36:34.874Z,100216.03
2019-04-05T16:41:37.565Z,100223.23
2019-04-05T16:46:40.262Z,100222.74
2019-04-05T16:51:42.972Z,100220.27
2019-04-05T16:56:45.661Z,100222.02
2019-04-05T17:01:48.487Z,100217.80
2019-04-05T17:06:51.176Z,100223.19
2019-04-05T17:11:53.904Z,100209.81
2019-04-05T17:16:56.623Z,100226.50
2019-04-05T17:21:59.322Z,100225.93
2019-04-05T17:27:02.054Z,100226.32
2019-04-05T17:32:04.742Z,100227.19
2019-04-05T17:37:07.441Z,100237.28
2019-04-05T17:42:10.131Z,100231.94
2019-04-05T17:47:12.819Z,100228.84
2019-04-05T17:52:15.912Z,100235.00
2019-04-05T17:57:18.909Z,100231.42
2019-04-05T18:02:21.608Z,100240.22
2019-04-05T18:07:24.313Z,100242.25
2019-04-05T18:12:27.021Z,100244.73
2019-04-05T18:17:29.738Z,100250.04
2019-04-05T18:22:32.423Z,100254.56
2019-04-05T18:27:35.124Z,100258.07
2019-04-05T18:32:37.836Z,100264.75
2019-04-05T18:37:40.541Z,100267.06
2019-04-05T18:42:43.261Z,100274.80
2019-04-05T18:47:45.964Z,100281.52
2019-04-05T18:52:48.663Z,100280.20
2019-04-05T18:57:51.367Z,100289.96
2019-04-05T19:02:54.094Z,100286.58
2019-04-05T19:07:56.872Z,100293.19
2019-04-05T19:13:00.475Z,100295.61
2019-04-05T19:18:03.338Z,100279.48
2019-04-05T19:23:06.137Z,100298.95
2019-04-05T19:28:09.695Z,100300.84
2019-04-05T19:53:29.169Z,100296.30
2019-04-05T19:58:31.862Z,100294.60
2019-04-05T20:03:34.588Z,100291.08
2019-04-05T20:08:37.358Z,100300.55
2019-04-05T20:13:40.105Z,100300.87
2019-04-05T20:18:43.002Z,100306.77
2019-04-05T20:23:47.714Z,100299.86
2019-04-05T20:28:50.300Z,100299.00
2019-04-05T20:33:53.129Z,100295.27
2019-04-05T20:38:55.830Z,100302.14
2019-04-05T20:43:58.531Z,100292.58
2019-04-05T20:49:01.223Z,100281.00
2019-04-05T20:54:04.592Z,100286.48
2019-04-05T20:59:07.484Z,100297.29
2019-04-05T21:04:10.177Z,100285.13
2019-04-05T21:09:12.881Z,100281.20
2019-04-05T21:14:15.573Z,100280.53
2019-04-05T21:19:18.269Z,100289.95
2019-04-05T21:24:21.191Z,100277.84
2019-04-05T21:29:23.876Z,100285.92
2019-04-05T21:34:26.697Z,100280.92
2019-04-05T21:39:29.587Z,100286.56
2019-04-05T21:44:32.261Z,100289.25
2019-04-05T21:49:34.962Z,100295.20
2019-04-05T21:54:47.131Z,100297.66
2019-04-05T21:59:42.257Z,100297.85
2019-04-05T22:04:44.965Z,100306.06
2019-04-05T22:09:47.665Z,100315.20
2019-04-05T22:14:50.361Z,100313.16
2019-04-05T22:19:53.067Z,100312.98
2019-04-05T22:24:59.480Z,100313.61
2019-04-05T22:30:00.368Z,100316.22
2019-04-05T22:35:03.245Z,100326.00
2019-04-05T22:40:06.436Z,100329.98
2019-04-05T22:45:09.943Z,100330.89
2019-04-05T22:50:13.137Z,100328.28
2019-04-05T22:55:15.833Z,100324.81
2019-04-05T23:00:18.567Z,100324.01
2019-04-05T23:05:21.260Z,100317.03
2019-04-05T23:10:23.952Z,100314.23
2019-04-05T23:15:26.640Z,100303.80
2019-04-05T23:20:29.342Z,100309.41
2019-04-05T23:25:32.059Z,100316.11
2019-04-05T23:30:34.754Z,100306.06
2019-04-05T23:35:37.444Z,100308.44
2019-04-05T23:40:40.165Z,100308.92
2019-04-05T23:45:42.857Z,100308.64
2019-04-05T23:50:45.548Z,100293.93
2019-04-05T23:55:48.244Z,100297.54
